Terminal Aerodrome Forecast
Issued by NWS Wichita, KS

Home | Current Version | Previous Version | Text Only | Print | Product List | Glossary Off
Versions: 1 2 3 4 5 6 7 8 9 10 11 12 13 14 15 16 17 18 19 20 21 22

117
FTUS43 KICT 231728 AAC
TAFICT
TAF AMD
KICT 231728Z 2317/2418 17026G35KT P6SM BKN030
      TEMPO 2318/2321 BKN018
     FM232100 17025G33KT P6SM SCT020 BKN035
     FM241000 18021G29KT P6SM SCT035 BKN150=

USA.gov is the U.S. government's official web portal to all federal, state and local government web resources and services.